Time;durP1;ratioP1;P1;durP2;ratioP2;P2;SDS_P1;SDS_P2;PMS_P1;PMS_P2;Temp;Humidity;BMP_temperature;BMP_pressure;BME280_temperature;BME280_humidity;BME280_pressure;Samples;Min_cycle;Max_cycle;Signal;HPM_P1;HPM_P2
2022/09/20 14:47:53;;;;;;;5.53;2.13;;;22.70;52.80;;;;;;6182050;23;20021;-73
2022/09/20 14:50:34;;;;;;;13.20;2.97;;;22.70;53.00;;;;;;6185764;23;20009;-71
2022/09/20 14:53:06;;;;;;;8.10;2.88;;;22.60;54.20;;;;;;6183907;23;20302;-70
2022/09/20 14:55:34;;;;;;;12.70;2.95;;;22.60;54.30;;;;;;6182134;23;20005;-70
2022/09/20 14:58:10;;;;;;;4.00;2.13;;;22.60;54.60;;;;;;6181638;23;20424;-70
2022/09/20 15:00:52;;;;;;;13.98;5.68;;;22.50;54.80;;;;;;6182217;23;20036;-69
2022/09/20 15:03:39;;;;;;;9.95;4.43;;;22.50;54.90;;;;;;6182193;23;20076;-71
2022/09/20 15:06:10;;;;;;;7.22;2.88;;;22.40;55.30;;;;;;6180679;23;20013;-66
2022/09/20 15:08:38;;;;;;;14.25;3.15;;;22.40;55.40;;;;;;6181541;23;20051;-68
2022/09/20 15:11:13;;;;;;;7.15;2.78;;;22.40;55.60;;;;;;6180830;23;20001;-72
2022/09/20 15:13:41;;;;;;;10.63;2.85;;;22.40;56.10;;;;;;6181485;23;20005;-69
2022/09/20 15:16:09;;;;;;;15.13;9.20;;;22.40;56.00;;;;;;6182213;23;20012;-68
2022/09/20 15:18:42;;;;;;;24.55;17.85;;;22.40;56.60;;;;;;6178999;23;20475;-74
2022/09/20 15:21:10;;;;;;;30.67;17.17;;;22.40;56.50;;;;;;6204546;23;20048;-68
2022/09/20 15:23:38;;;;;;;20.77;8.00;;;22.30;56.50;;;;;;6180883;23;20088;-70
2022/09/20 15:26:05;;;;;;;18.58;8.40;;;22.30;56.60;;;;;;6181076;23;20013;-72
2022/09/20 15:28:33;;;;;;;22.13;11.38;;;22.20;56.80;;;;;;6179094;23;20051;-71
2022/09/20 15:31:39;;;;;;;20.02;10.13;;;22.20;56.80;;;;;;6180072;23;20097;-69
2022/09/20 15:34:45;;;;;;;21.63;11.50;;;22.10;56.70;;;;;;6180390;23;20007;-71
2022/09/20 15:37:13;;;;;;;13.73;8.00;;;22.10;58.10;;;;;;6179628;23;20063;-72
2022/09/20 15:39:39;;;;;;;10.50;6.25;;;22.10;58.50;;;;;;6180589;23;20001;-70
2022/09/20 15:42:06;;;;;;;11.25;4.22;;;22.00;57.90;;;;;;6180739;23;20001;-68
2022/09/20 15:44:32;;;;;;;9.68;3.75;;;22.00;58.60;;;;;;6179711;23;20416;-73
2022/09/20 15:47:00;;;;;;;6.75;3.42;;;22.00;59.00;;;;;;6180440;23;20013;-69
2022/09/20 15:49:28;;;;;;;9.95;3.75;;;21.90;58.60;;;;;;6179306;23;20037;-68
2022/09/20 15:51:54;;;;;;;8.60;3.47;;;21.90;58.70;;;;;;6180961;23;20001;-68
2022/09/20 15:54:21;;;;;;;5.47;2.90;;;21.80;58.80;;;;;;6179705;23;20004;-68
2022/09/20 15:56:48;;;;;;;4.90;2.13;;;21.80;58.90;;;;;;6180978;23;20005;-69
2022/09/20 15:59:15;;;;;;;11.25;1.92;;;21.80;59.00;;;;;;6179982;23;20063;-70
2022/09/20 16:01:43;;;;;;;12.60;3.72;;;21.70;59.20;;;;;;6180361;23;20121;-68
2022/09/20 16:04:18;;;;;;;10.00;2.58;;;21.70;59.90;;;;;;6180799;23;20012;-73
2022/09/20 16:06:48;;;;;;;27.10;16.65;;;21.70;59.90;;;;;;6179296;23;20009;-71
2022/09/20 16:09:15;;;;;;;17.65;11.63;;;21.60;59.60;;;;;;6180585;23;20383;-72
2022/09/20 18:32:23;;;;;;;6.90;2.13;;;19.70;69.20;;;;;;5069402;27;20455;-72
2022/09/20 18:34:50;;;;;;;5.72;2.65;;;19.80;70.40;;;;;;5038072;28;20521;-74
2022/09/20 18:37:16;;;;;;;4.80;2.08;;;19.80;70.30;;;;;;5049034;28;20021;-75
2022/09/20 18:39:43;;;;;;;4.68;2.90;;;19.80;70.10;;;;;;5047238;28;20100;-72
2022/09/20 18:42:09;;;;;;;7.90;3.38;;;19.80;70.00;;;;;;5047699;28;20024;-70
2022/09/20 18:44:36;;;;;;;21.83;9.43;;;19.90;70.00;;;;;;5046000;28;20021;-79
2022/09/20 18:47:05;;;;;;;12.77;9.30;;;19.90;70.80;;;;;;5048069;28;20079;-71
2022/09/20 18:49:33;;;;;;;10.48;6.00;;;19.90;71.00;;;;;;5049976;28;20029;-76
2022/09/20 18:52:00;;;;;;;11.85;6.10;;;19.90;70.60;;;;;;5045461;28;20416;-72
2022/09/20 18:54:32;;;;;;;6.13;3.60;;;19.90;70.10;;;;;;5051600;28;20467;-73
2022/09/20 18:56:59;;;;;;;9.43;3.17;;;19.90;70.00;;;;;;5045625;28;20104;-75
2022/09/20 18:59:28;;;;;;;6.35;3.58;;;19.90;70.10;;;;;;5046508;28;20079;-76
2022/09/20 19:02:08;;;;;;;9.07;2.75;;;19.90;70.20;;;;;;5056676;28;20080;-69
2022/09/20 19:04:56;;;;;;;10.77;3.20;;;19.90;70.20;;;;;;5043845;28;20392;-71
2022/09/20 19:07:53;;;;;;;7.28;2.55;;;19.90;70.30;;;;;;5047484;28;20025;-71
2022/09/20 19:10:55;;;;;;;12.07;3.45;;;19.80;70.50;;;;;;5044088;28;20039;-76
2022/09/20 19:14:04;;;;;;;10.60;3.22;;;19.80;70.60;;;;;;5044475;28;20026;-70
2022/09/20 19:16:39;;;;;;;34.05;5.22;;;19.80;71.20;;;;;;5033582;28;20042;-70
2022/09/20 19:19:21;;;;;;;22.00;9.82;;;19.80;71.40;;;;;;5043877;28;20029;-69
2022/09/20 19:22:07;;;;;;;25.77;14.32;;;19.80;71.80;;;;;;5043518;28;20105;-73
2022/09/20 19:24:54;;;;;;;;;;;19.80;72.00;;;;;;5047914;28;20054;-71
2022/09/20 19:27:21;;;;;;;22.85;11.82;;;19.70;72.00;;;;;;5046773;28;19917;-71
2022/09/20 19:29:47;;;;;;;21.40;11.63;;;19.80;72.00;;;;;;5045207;28;20013;-72
2022/09/20 19:32:20;;;;;;;11.15;6.40;;;19.70;72.00;;;;;;5045046;28;20052;-70
2022/09/20 19:34:49;;;;;;;26.33;5.25;;;19.70;72.30;;;;;;5044263;28;20038;-72
2022/09/20 19:37:37;;;;;;;8.48;3.95;;;19.70;72.20;;;;;;5044458;28;20388;-71
2022/09/20 19:40:18;;;;;;;7.05;3.10;;;19.70;72.30;;;;;;5042957;28;20021;-77
2022/09/20 19:43:05;;;;;;;7.53;2.25;;;19.70;72.30;;;;;;5036232;28;20005;-71
2022/09/20 19:45:37;;;;;;;5.15;2.33;;;19.60;72.40;;;;;;5031289;28;20079;-71
2022/09/20 19:48:20;;;;;;;6.28;2.08;;;19.70;72.50;;;;;;5021744;28;20736;-79
2022/09/20 19:50:53;;;;;;;8.68;2.35;;;19.60;72.50;;;;;;5030860;28;20029;-71
2022/09/20 19:53:27;;;;;;;9.80;2.40;;;19.60;72.50;;;;;;5033629;28;20484;-80
2022/09/20 19:56:15;;;;;;;6.80;2.22;;;19.60;72.60;;;;;;5027010;28;20055;-71
2022/09/20 19:58:42;;;;;;;13.05;2.55;;;19.60;72.50;;;;;;5029743;28;20017;-70
2022/09/20 20:01:09;;;;;;;11.75;2.60;;;19.60;72.40;;;;;;5030332;28;20033;-71
2022/09/20 20:03:36;;;;;;;5.97;2.08;;;19.60;72.30;;;;;;5026634;28;20088;-75
2022/09/20 20:06:10;;;;;;;8.35;2.58;;;19.60;72.10;;;;;;5032005;28;20029;-71
2022/09/20 20:08:49;;;;;;;3.45;2.08;;;19.60;72.00;;;;;;5029599;28;20017;-73
2022/09/20 20:11:40;;;;;;;5.60;2.00;;;19.50;71.90;;;;;;5026739;28;20037;-72
2022/09/20 20:14:32;;;;;;;10.20;2.25;;;19.60;71.90;;;;;;5029507;28;20041;-72
2022/09/20 20:17:29;;;;;;;9.10;2.13;;;19.50;71.80;;;;;;5030682;28;20599;-71
2022/09/20 20:20:23;;;;;;;9.02;2.03;;;19.50;72.20;;;;;;5030883;28;20187;-81
2022/09/20 20:22:56;;;;;;;4.50;1.52;;;19.50;72.70;;;;;;5032062;28;20405;-72
2022/09/20 20:25:45;;;;;;;4.53;1.88;;;19.50;72.00;;;;;;5032370;28;20033;-69
2022/09/20 20:28:11;;;;;;;12.35;2.88;;;19.50;72.00;;;;;;5033983;28;20033;-74
2022/09/20 20:30:38;;;;;;;11.10;2.72;;;19.40;71.90;;;;;;5030923;28;20452;-74
2022/09/20 20:33:05;;;;;;;8.93;2.42;;;19.40;72.00;;;;;;5031612;28;20083;-73
2022/09/20 20:35:32;;;;;;;5.70;2.67;;;19.40;71.90;;;;;;5031552;28;20025;-72
2022/09/20 20:37:58;;;;;;;19.00;3.75;;;19.30;71.90;;;;;;5030542;28;20854;-73
2022/09/20 20:40:25;;;;;;;9.05;2.47;;;19.30;72.10;;;;;;5030364;28;20373;-76
2022/09/20 20:43:00;;;;;;;3.72;1.80;;;19.30;72.10;;;;;;5030296;28;20781;-75
2022/09/20 20:45:27;;;;;;;7.47;2.20;;;19.30;72.00;;;;;;5046585;28;20057;-77
2022/09/20 20:47:58;;;;;;;7.57;3.00;;;19.30;71.90;;;;;;5030074;28;20088;-75
2022/09/20 20:50:28;;;;;;;9.20;3.47;;;19.20;71.80;;;;;;5034533;28;20085;-72
2022/09/20 20:52:56;;;;;;;10.73;5.10;;;19.20;72.00;;;;;;5028180;28;20085;-77
2022/09/20 20:55:23;;;;;;;6.55;3.03;;;19.20;72.00;;;;;;5029537;28;20809;-73
2022/09/20 20:57:56;;;;;;;11.25;3.55;;;19.10;72.10;;;;;;5029674;28;20708;-71
2022/09/20 21:00:27;;;;;;;9.38;3.03;;;19.10;72.10;;;;;;5028950;28;20029;-75
2022/09/20 21:02:58;;;;;;;6.95;2.75;;;19.10;72.50;;;;;;5032977;28;20029;-69
2022/09/20 21:05:28;;;;;;;11.52;2.38;;;19.10;72.60;;;;;;5032369;28;20026;-73
2022/09/20 21:07:56;;;;;;;10.70;3.33;;;19.10;72.60;;;;;;5031235;28;20013;-72
2022/09/20 21:10:23;;;;;;;7.20;2.33;;;19.10;72.90;;;;;;5032101;28;20037;-71
2022/09/20 21:12:53;;;;;;;5.95;2.30;;;19.10;73.00;;;;;;5048538;28;20079;-85
2022/09/20 21:15:20;;;;;;;7.20;2.75;;;19.10;72.90;;;;;;5034509;28;20029;-81
2022/09/20 21:17:51;;;;;;;5.57;3.35;;;19.10;72.90;;;;;;5049293;28;20156;-83
2022/09/20 21:20:19;;;;;;;5.03;2.35;;;19.10;73.00;;;;;;5040460;28;20028;-86
2022/09/20 21:22:45;;;;;;;10.30;2.40;;;19.10;73.00;;;;;;5041885;28;20037;-86
2022/09/20 21:25:12;;;;;;;10.13;2.60;;;19.00;72.90;;;;;;5035877;28;20056;-84
2022/09/20 21:27:39;;;;;;;7.72;3.05;;;19.00;73.00;;;;;;5040184;28;20025;-86
2022/09/20 21:30:07;;;;;;;6.20;2.72;;;19.00;73.10;;;;;;5029003;28;20503;-81
2022/09/20 21:32:33;;;;;;;11.77;3.30;;;19.00;73.30;;;;;;5032669;28;20017;-81
2022/09/20 21:35:00;;;;;;;12.52;4.57;;;19.00;73.50;;;;;;5033572;28;20496;-84
2022/09/20 21:37:28;;;;;;;9.98;3.33;;;19.00;73.40;;;;;;5027868;28;20025;-86
2022/09/20 21:39:55;;;;;;;5.85;2.10;;;18.90;73.40;;;;;;5032590;28;20020;-89
2022/09/20 21:42:22;;;;;;;6.57;2.30;;;18.90;73.40;;;;;;5033288;28;20055;-83
2022/09/20 21:44:50;;;;;;;6.72;2.75;;;18.90;73.20;;;;;;5029422;28;20392;-85
2022/09/20 21:47:19;;;;;;;4.97;2.17;;;18.90;73.40;;;;;;5032855;28;20639;-84
2022/09/20 21:49:46;;;;;;;7.00;2.10;;;18.90;73.60;;;;;;5021263;28;20423;-86
2022/09/20 21:52:13;;;;;;;6.88;1.92;;;18.80;73.40;;;;;;5029530;28;20492;-85
2022/09/20 21:54:45;;;;;;;9.93;2.55;;;18.80;73.40;;;;;;5028458;28;20068;-86
2022/09/20 21:57:12;;;;;;;15.90;2.47;;;18.80;73.60;;;;;;5034099;28;20051;-82
2022/09/20 21:59:39;;;;;;;7.90;2.03;;;18.80;74.40;;;;;;5046728;28;20060;-85
2022/09/20 22:02:05;;;;;;;10.38;2.47;;;18.80;75.10;;;;;;5044614;28;20018;-82
2022/09/20 22:04:32;;;;;;;9.40;2.75;;;18.80;75.50;;;;;;5031862;28;20505;-84
2022/09/20 22:07:00;;;;;;;10.00;2.42;;;18.80;75.30;;;;;;5029510;28;20106;-73
